Latest Weather Observations for Tewantin

IDQ60801

Issued at 1:32 pm EST Saturday 25 March 2017 (issued every 30 minutes, with the page automatically refreshed every 10 minutes)

About weather observations | Map of weather stations | Latest weather observations for QLD | Other Formats
Station Details ID: 040908 Name: TEWANTIN RSL PARK Lat: -26.39 Lon: 153.04 Height: 6.4 m
Data from the previous 72 hours. | See also: Recent months at Tewantin
Date/Time
EST
Temp
°C
App
Temp
°C
Dew
Point
°C
Rel
Hum
%
Delta-T
°C
Wind Press
QNH
hPa
Press
MSL
hPa
Rain since
9am
mm
Dir  Spd
km/h
Gust
km/h
Spd
kts
Gust
kts
25/01:30pm 25.9 28.2 21.3 76 3.0 SSE 11 26 6 14 1014.1 1014.1 1.2
25/01:00pm 25.5 25.9 20.7 75 3.1 ESE 19 30 10 16 1014.4 1014.4 1.2
25/12:30pm 25.9 26.7 20.7 73 3.4 SE 17 26 9 14 1014.6 1014.6 1.2
25/12:00pm 26.1 26.4 20.4 71 3.7 SSE 19 32 10 17 1015.1 1015.1 1.2
25/11:30am 26.3 27.6 21.7 76 3.1 SE 17 30 9 16 1015.5 1015.5 1.2
25/11:00am 24.2 27.7 23.5 96 0.5 S 11 20 6 11 1016.0 1016.0 1.0
25/10:30am 23.6 26.3 22.8 95 0.5 SSE 13 22 7 12 1016.3 1016.3 0.6
25/10:00am 24.9 27.4 22.4 86 1.7 SE 13 26 7 14 1016.3 1016.3 0.0
25/09:30am 25.0 27.0 22.3 85 1.8 SE 15 26 8 14 1016.1 1016.1 0.0
25/09:00am 25.4 27.4 22.9 86 1.7 SE 17 26 9 14 1016.0 1016.0 4.6
25/08:30am 24.3 26.8 23.1 93 0.8 SSE 15 24 8 13 1015.8 1015.8 4.6
25/08:00am 24.1 26.8 23.4 96 0.5 SSE 15 24 8 13 1015.4 1015.4 4.6
25/07:30am 23.3 27.0 23.3 100 0.0 S 9 17 5 9 1014.9 1014.9 4.4
25/07:00am 23.0 26.6 23.0 100 0.0 SSW 9 20 5 11 1014.7 1014.7 4.2
25/06:30am 22.7 26.1 22.7 100 0.0 SSW 9 15 5 8 1014.3 1014.3 2.8
25/06:00am 22.8 25.8 22.6 99 0.1 SSW 11 15 6 8 1014.1 1014.1 2.8
25/05:30am 23.1 26.6 22.9 99 0.1 SSW 9 15 5 8 1013.8 1013.8 0.4
25/05:00am 23.6 27.2 23.1 97 0.3 S 9 17 5 9 1013.5 1013.5 0.4
25/04:30am 23.9 27.0 22.9 94 0.7 SSE 11 24 6 13 1013.5 1013.5 0.4
25/04:00am 24.0 27.6 23.1 95 0.6 S 9 17 5 9 1013.4 1013.4 0.4
25/03:30am 24.0 27.0 23.3 96 0.5 SSE 13 22 7 12 1013.7 1013.7 0.4
25/03:00am 23.6 27.0 23.4 99 0.1 S 11 17 6 9 1013.8 1013.8 0.4
25/02:30am 23.3 27.0 23.3 100 0.0 S 9 15 5 8 1013.8 1013.8 0.4
25/02:00am 22.8 26.1 22.6 99 0.1 SSW 9 15 5 8 1014.2 1014.2 0.4
25/01:30am 23.0 26.1 22.8 99 0.1 SSW 11 22 6 12 1014.5 1014.5 0.4
25/01:00am 23.5 27.2 23.2 98 0.2 S 9 15 5 8 1014.8 1014.8 0.2
25/12:30am 23.5 25.9 23.0 97 0.3 S 15 24 8 13 1014.9 1014.9 0.2
25/12:00am 23.5 25.8 22.8 96 0.5 S 15 24 8 13 1015.1 1015.1 0.2
 
Date/Time
EST
Temp
°C
App
Temp
°C
Dew
Point
°C
Rel
Hum
%
Delta-T
°C
Wind Press
QNH
hPa
Press
MSL
hPa
Rain since
9am
mm
Dir  Spd
km/h
Gust
km/h
Spd
kts
Gust
kts
24/11:30pm 23.4 26.1 22.9 97 0.3 S 13 20 7 11 1015.3 1015.3 0.2
24/11:00pm 23.4 26.3 23.2 99 0.1 S 13 20 7 11 1015.3 1015.3 0.2
24/10:30pm 23.4 26.7 23.2 99 0.1 SSW 11 19 6 10 1015.4 1015.4 0.2
24/10:00pm 23.4 26.1 22.9 97 0.3 S 13 20 7 11 1015.5 1015.5 0.2
24/09:30pm 24.4 27.1 22.8 91 1.1 S 13 20 7 11 1015.7 1015.7 0.2
24/09:00pm 25.0 27.9 23.1 89 1.3 S 13 19 7 10 1015.5 1015.5 0.2
24/08:30pm 25.0 29.0 23.1 89 1.3 SSW 7 9 4 5 1015.3 1015.3 0.2
24/08:00pm 25.2 29.5 23.3 89 1.3 SSW 6 7 3 4 1015.1 1015.1 0.2
24/07:30pm 25.3 30.1 22.8 86 1.7 SSW 2 7 1 4 1014.9 1014.9 0.2
24/07:00pm 25.5 29.5 22.8 85 1.8 S 6 11 3 6 1014.5 1014.5 0.2
24/06:30pm 25.6 29.6 22.7 84 2.0 S 6 9 3 5 1014.3 1014.3 0.2
24/06:00pm 25.7 29.8 22.2 81 2.3 SE 4 11 2 6 1013.9 1013.9 0.2
24/05:30pm 26.2 29.5 21.8 77 2.9 ESE 7 11 4 6 1013.7 1013.7 0.2
24/05:00pm 26.5 30.9 22.1 77 3.0 E 2 7 1 4 1013.2 1013.2 0.2
24/04:30pm 26.6 30.1 21.1 72 3.6 ENE 4 7 2 4 1013.2 1013.2 0.2
24/04:00pm 26.8 30.3 21.8 74 3.3 ENE 6 9 3 5 1013.0 1013.0 0.2
24/03:30pm 26.7 30.6 21.9 75 3.2 NE 4 9 2 5 1012.9 1012.9 0.2
24/03:00pm 26.8 30.8 22.8 79 2.7 NE 6 9 3 5 1013.0 1013.0 0.2
24/02:30pm 26.6 30.1 22.2 77 3.0 NNE 7 11 4 6 1013.1 1013.1 0.2
24/02:00pm 26.6 29.8 22.4 78 2.8 NE 9 15 5 8 1013.4 1013.4 0.2
24/01:30pm 27.1 30.9 24.0 83 2.1 NE 11 19 6 10 1013.7 1013.7 0.2
24/01:00pm 26.5 29.8 23.8 85 1.9 NE 13 19 7 10 1014.1 1014.1 0.2
24/12:30pm 26.2 28.6 22.9 82 2.2 ESE 15 24 8 13 1014.5 1014.5 0.2
24/12:00pm 27.6 30.7 23.6 79 2.7 ENE 13 26 7 14 1014.8 1014.8 0.2
24/11:30am 28.3 31.6 21.8 68 4.4 ESE 7 13 4 7 1015.1 1015.1 0.2
24/11:00am 28.2 30.8 22.0 69 4.2 E 11 19 6 10 1015.6 1015.6 0.0
24/10:30am 26.7 31.4 24.0 85 1.9 NNE 6 9 3 5 1015.7 1015.7 0.0
24/10:00am 25.6 29.1 22.9 85 1.8 NE 9 15 5 8 1016.0 1016.0 0.0
24/09:30am 26.5 30.7 23.2 82 2.2 SSE 6 11 3 6 1015.9 1015.9 0.0
24/09:00am 26.0 30.2 23.5 86 1.7 SSE 7 11 4 6 1015.8 1015.8 11.8
24/08:30am 26.0 30.0 23.7 87 1.6 S 9 15 5 8 1015.7 1015.7 11.8
24/08:00am 25.4 29.8 23.8 91 1.1 S 7 13 4 7 1015.5 1015.5 11.8
24/07:30am 24.6 29.2 24.1 97 0.3 S 7 9 4 5 1015.2 1015.2 11.8
24/07:00am 23.7 29.0 23.7 100 0.0 SSW 2 6 1 3 1014.9 1014.9 11.8
24/06:30am 23.2 27.8 23.2 100 0.0 S 4 9 2 5 1014.7 1014.7 11.8
24/06:00am 23.1 28.0 23.1 100 0.0 SE 2 7 1 4 1014.2 1014.2 11.8
24/05:30am 23.4 27.8 23.4 100 0.0 S 6 9 3 5 1013.8 1013.8 11.8
24/05:00am 23.2 28.6 23.2 100 0.0 CALM 0 0 0 0 1013.7 1013.7 11.8
24/04:30am 23.4 28.9 23.4 100 0.0 CALM 0 6 0 3 1013.4 1013.4 11.8
24/04:00am 23.4 28.9 23.4 100 0.0 CALM 0 0 0 0 1013.5 1013.5 11.8
24/03:30am 23.4 28.9 23.4 100 0.0 CALM 0 0 0 0 1013.5 1013.5 11.8
24/03:00am 23.5 28.7 23.5 100 0.0 SSW 2 7 1 4 1013.5 1013.5 11.8
24/02:30am 23.5 29.1 23.5 100 0.0 CALM 0 0 0 0 1013.7 1013.7 11.8
24/02:00am 23.6 29.2 23.6 100 0.0 CALM 0 0 0 0 1014.2 1014.2 11.8
24/01:30am 23.6 29.2 23.6 100 0.0 CALM 0 0 0 0 1014.4 1014.4 11.8
24/01:00am 23.5 28.3 23.5 100 0.0 WSW 4 7 2 4 1014.6 1014.6 11.8
24/12:30am 23.6 28.5 23.6 100 0.0 WSW 4 9 2 5 1015.0 1015.0 11.8
24/12:00am 23.9 29.3 23.9 100 0.0 NW 2 9 1 5 1015.3 1015.3 11.8
 
Date/Time
EST
Temp
°C
App
Temp
°C
Dew
Point
°C
Rel
Hum
%
Delta-T
°C
Wind Press
QNH
hPa
Press
MSL
hPa
Rain since
9am
mm
Dir  Spd
km/h
Gust
km/h
Spd
kts
Gust
kts
23/11:30pm 24.0 28.7 24.0 100 0.0 SW 6 7 3 4 1015.3 1015.3 11.8
23/11:00pm 24.0 29.8 24.0 100 0.0 CALM 0 0 0 0 1015.3 1015.3 11.8
23/10:30pm 24.2 29.7 24.0 99 0.1 WSW 2 6 1 3 1015.6 1015.6 11.8
23/10:00pm 24.3 29.9 24.3 100 0.0 SW 2 7 1 4 1015.9 1015.9 11.8
23/09:30pm 24.3 29.1 24.1 99 0.1 SW 6 7 3 4 1016.1 1016.1 11.6
23/09:00pm 24.6 29.4 24.4 99 0.1 SSW 7 13 4 7 1016.1 1016.1 11.0
23/08:30pm 24.1 27.7 23.1 94 0.7 E 9 17 5 9 1016.0 1016.0 2.8
23/08:00pm 24.7 29.5 24.2 97 0.3 S 6 9 3 5 1015.6 1015.6 0.6
23/07:30pm 24.9 29.7 24.2 96 0.5 SE 6 9 3 5 1015.5 1015.5 0.4
23/07:00pm 25.7 30.6 23.7 89 1.4 ESE 4 9 2 5 1015.1 1015.1 0.2
23/06:30pm 25.8 31.1 23.1 85 1.8 CALM 0 0 0 0 1014.8 1014.8 0.2
23/06:00pm 26.0 31.7 23.7 87 1.6 CALM 0 0 0 0 1014.5 1014.5 0.2
23/05:30pm 26.1 31.8 23.8 87 1.6 CALM 0 6 0 3 1014.3 1014.3 0.2
23/05:00pm 26.1 30.4 23.6 86 1.7 E 7 11 4 6 1014.1 1014.1 0.2
23/04:30pm 26.3 30.5 23.4 84 2.0 NE 7 9 4 5 1014.1 1014.1 0.2
23/04:00pm 26.6 30.5 22.9 80 2.5 NE 7 11 4 6 1013.8 1013.8 0.2
23/03:30pm 27.0 31.1 23.3 80 2.5 NE 7 11 4 6 1013.7 1013.7 0.2
23/03:00pm 26.7 30.6 23.0 80 2.5 NE 7 13 4 7 1013.9 1013.9 0.2
23/02:30pm 27.0 31.2 23.5 81 2.4 NE 7 11 4 6 1014.1 1014.1 0.2
23/02:00pm 27.1 31.2 22.9 78 2.9 E 6 7 3 4 1014.1 1014.1 0.2
23/01:30pm 27.3 32.6 23.7 81 2.5 NE 2 7 1 4 1014.4 1014.4 0.2
23/01:00pm 27.0 30.4 21.7 73 3.5 N 6 13 3 7 1014.5 1014.5 0.2
23/12:30pm 27.0 30.7 22.6 77 3.0 N 7 9 4 5 1014.9 1014.9 0.2
23/12:00pm 26.2 28.6 21.6 76 3.1 N 11 17 6 9 1015.4 1015.4 0.2
23/11:30am 26.1 29.3 21.7 77 2.9 N 7 13 4 7 1016.1 1016.1 0.2
23/11:00am 25.5 27.8 21.4 78 2.7 NNE 11 15 6 8 1016.3 1016.3 0.0
23/10:30am 25.4 29.0 22.3 83 2.1 NNE 7 11 4 6 1016.6 1016.6 0.0
23/10:00am 24.9 28.9 22.8 88 1.4 NNE 6 9 3 5 1016.7 1016.7 0.0
23/09:30am 24.5 28.0 22.9 91 1.1 N 9 13 5 7 1016.8 1016.8 0.0
23/09:00am 24.7 29.2 23.7 94 0.7 NNE 6 9 3 5 1016.7 1016.7 8.6
23/08:30am 24.6 29.2 23.2 92 0.9 N 4 9 2 5 1016.5 1016.5 8.4
23/08:00am 24.3 28.9 24.1 99 0.1 NE 7 13 4 7 1016.2 1016.2 8.4
23/07:30am 23.9 28.0 23.9 100 0.0 NE 9 13 5 7 1015.7 1015.7 8.4
23/07:00am 23.4 27.6 23.4 100 0.0 ENE 7 15 4 8 1015.5 1015.5 8.4
23/06:30am 22.9 27.0 22.9 100 0.0 N 6 9 3 5 1015.3 1015.3 8.0
23/06:00am 22.9 27.2 22.7 99 0.1 S 4 7 2 4 1015.0 1015.0 7.8
23/05:30am 22.9 28.0 22.7 99 0.1 CALM 0 0 0 0 1014.7 1014.7 7.8
23/05:00am 23.0 28.2 22.8 99 0.1 CALM 0 0 0 0 1014.6 1014.6 7.8
23/04:30am 22.8 27.9 22.6 99 0.1 CALM 0 6 0 3 1014.3 1014.3 7.8
23/04:00am 22.8 27.5 22.6 99 0.1 SSW 2 9 1 5 1013.9 1013.9 7.8
23/03:30am 22.9 26.9 22.7 99 0.1 SSW 6 9 3 5 1013.7 1013.7 7.8
23/03:00am 22.9 26.9 22.7 99 0.1 S 6 9 3 5 1013.7 1013.7 7.8
23/02:30am 23.0 27.0 22.8 99 0.1 SSW 6 7 3 4 1013.8 1013.8 7.8
23/02:00am 23.1 27.2 22.9 99 0.1 SSW 6 6 3 3 1014.1 1014.1 7.6
23/01:30am 23.1 27.9 22.9 99 0.1 SSW 2 7 1 4 1014.3 1014.3 7.6
23/01:00am 23.1 27.2 22.9 99 0.1 SSW 6 9 3 5 1014.7 1014.7 7.4
23/12:30am 23.2 28.1 23.0 99 0.1 SW 2 7 1 4 1015.0 1015.0 7.0
23/12:00am 23.3 28.6 23.1 99 0.1 CALM 0 2 0 1 1015.2 1015.2 5.6
 
Date/Time
EST
Temp
°C
App
Temp
°C
Dew
Point
°C
Rel
Hum
%
Delta-T
°C
Wind Press
QNH
hPa
Press
MSL
hPa
Rain since
9am
mm
Dir  Spd
km/h
Gust
km/h
Spd
kts
Gust
kts
22/11:30pm 23.4 28.0 23.2 99 0.1 SW 4 6 2 3 1015.2 1015.2 5.6
22/11:00pm 23.6 28.4 22.9 96 0.5 WSW 2 6 1 3 1015.4 1015.4 5.6
22/10:30pm 23.7 28.8 22.7 94 0.7 CALM 0 0 0 0 1015.5 1015.5 5.2
22/10:00pm 23.9 28.9 22.5 92 0.9 CALM 0 0 0 0 1015.6 1015.6 5.2
22/09:30pm 24.0 28.3 22.6 92 0.9 SW 4 9 2 5 1015.7 1015.7 5.2
22/09:00pm 24.2 28.8 22.5 90 1.1 WNW 2 7 1 4 1015.5 1015.5 5.2
22/08:30pm 24.4 28.6 22.5 89 1.3 WNW 4 7 2 4 1015.2 1015.2 5.2
22/08:00pm 24.6 28.5 22.5 88 1.4 NNW 6 9 3 5 1014.9 1014.9 5.2
22/07:30pm 24.8 28.4 22.1 85 1.8 WNW 6 9 3 5 1014.9 1014.9 5.2
22/07:00pm 25.1 27.7 21.2 79 2.6 N 9 13 5 7 1014.6 1014.6 5.2
22/06:30pm 25.3 28.8 21.8 81 2.3 N 6 9 3 5 1014.3 1014.3 5.2
22/06:00pm 25.4 28.7 22.5 84 1.9 N 9 11 5 6 1014.1 1014.1 5.2
22/05:30pm 25.7 28.7 22.6 83 2.1 N 11 17 6 9 1013.9 1013.9 5.2
22/05:00pm 26.2 29.0 22.3 79 2.6 NNE 11 19 6 10 1013.6 1013.6 5.2
22/04:30pm 26.7 29.0 22.8 79 2.6 NNE 15 20 8 11 1013.3 1013.3 5.2
22/04:00pm 27.0 29.9 22.4 76 3.1 NNE 11 15 6 8 1013.3 1013.3 5.2
22/03:30pm 27.1 30.3 23.1 79 2.7 NNE 11 17 6 9 1013.3 1013.3 5.2
22/03:00pm 27.1 29.8 22.1 74 3.4 NNE 11 19 6 10 1013.4 1013.4 5.2
22/02:30pm 27.3 29.7 22.3 74 3.4 NNE 13 22 7 12 1013.4 1013.4 5.2
22/02:00pm 27.3 31.8 24.0 82 2.3 NE 7 13 4 7 1013.4 1013.4 5.2

Other Formats:

Comma delimited format used in spreadsheet applications
http://www.bom.gov.au/fwo/IDQ60801/IDQ60801.94570.axf

JavaScript Object Notation format (JSON) in row-major order
http://www.bom.gov.au/fwo/IDQ60801/IDQ60801.94570.json